createdAt,value
2018-10-11T00:02:26.047Z,81.44
2018-10-11T00:04:54.977Z,82.48
2018-10-11T00:07:23.331Z,82.33
2018-10-11T00:09:51.086Z,82.14
2018-10-11T00:12:20.008Z,81.69
2018-10-11T00:14:48.345Z,80.98
2018-10-11T00:17:16.693Z,80.52
2018-10-11T00:19:45.106Z,79.93
2018-10-11T00:22:13.425Z,79.82
2018-10-11T00:24:41.776Z,79.36
2018-10-11T00:27:10.136Z,78.71
2018-10-11T00:29:37.894Z,79.41
2018-10-11T00:32:06.885Z,80.21
2018-10-11T00:34:34.647Z,81.13
2018-10-11T00:37:03.573Z,81.66
2018-10-11T00:39:31.344Z,82.26
2018-10-11T00:42:00.276Z,82.73
2018-10-11T00:44:28.048Z,83.48
2018-10-11T00:46:56.975Z,83.37
2018-10-11T00:49:25.050Z,83.88
2018-10-11T00:51:53.683Z,83.83
2018-10-11T00:54:22.245Z,83.68
2018-10-11T00:56:49.836Z,83.44
2018-10-11T00:59:18.799Z,83.29
2018-10-11T01:01:47.136Z,83.63
2018-10-11T01:04:15.496Z,83.40
2018-10-11T01:06:44.560Z,83.27
2018-10-11T01:09:12.091Z,82.90
2018-10-11T01:11:41.028Z,82.36
2018-10-11T01:14:09.585Z,81.58
2018-10-11T01:16:37.703Z,81.06
2018-10-11T01:19:05.511Z,81.09
2018-10-11T01:21:34.510Z,80.44
2018-10-11T01:24:03.001Z,79.84
2018-10-11T01:26:30.745Z,79.58
2018-10-11T01:28:59.653Z,79.77
2018-10-11T01:31:28.013Z,79.50
2018-10-11T01:33:56.400Z,79.14
2018-10-11T01:36:24.803Z,79.01
2018-10-11T01:38:52.569Z,78.77
2018-10-11T01:41:20.885Z,79.19
2018-10-11T01:43:49.815Z,79.20
2018-10-11T01:46:18.148Z,79.06
2018-10-11T01:48:45.893Z,79.17
2018-10-11T01:51:14.891Z,78.85
2018-10-11T01:53:42.585Z,78.73
2018-10-11T01:56:10.920Z,78.10
2018-10-11T01:58:39.281Z,78.00
2018-10-11T02:01:08.796Z,77.86
2018-10-11T02:03:37.153Z,77.60
2018-10-11T02:06:04.911Z,77.49
2018-10-11T02:08:34.285Z,77.56
2018-10-11T02:11:01.002Z,77.65
2018-10-11T02:13:29.933Z,77.54
2018-10-11T02:15:58.262Z,77.26
2018-10-11T02:18:26.586Z,77.28
2018-10-11T02:20:54.344Z,77.45
2018-10-11T02:23:22.689Z,77.83
2018-10-11T02:25:51.012Z,77.74
2018-10-11T02:28:19.351Z,77.92
2018-10-11T02:30:48.279Z,77.83
2018-10-11T02:33:16.611Z,78.43
2018-10-11T02:35:45.010Z,78.34
2018-10-11T02:38:12.766Z,78.07
2018-10-11T02:40:41.268Z,77.76
2018-10-11T02:43:09.479Z,78.29
2018-10-11T02:45:38.381Z,78.26
2018-10-11T02:48:06.719Z,78.44
2018-10-11T02:50:35.560Z,78.85
2018-10-11T02:53:03.892Z,78.92
2018-10-11T02:55:32.221Z,79.12
2018-10-11T02:58:06.409Z,79.47
2018-10-11T03:00:35.691Z,79.08
2018-10-11T03:03:03.466Z,78.33
2018-10-11T03:05:32.386Z,78.38
2018-10-11T03:08:00.146Z,78.26
2018-10-11T03:10:29.082Z,78.14
2018-10-11T03:12:56.839Z,77.89
2018-10-11T03:15:25.189Z,77.90
2018-10-11T03:17:54.112Z,77.94
2018-10-11T03:20:22.465Z,78.20
2018-10-11T03:22:50.253Z,78.04
2018-10-11T03:25:18.597Z,77.92
2018-10-11T03:27:47.523Z,78.15
2018-10-11T03:30:15.900Z,78.27
2018-10-11T03:32:44.212Z,78.42
2018-10-11T03:35:13.133Z,78.54
2018-10-11T03:37:41.492Z,78.28
2018-10-11T03:40:09.821Z,78.20
2018-10-11T03:42:37.590Z,78.03
2018-10-11T03:45:06.511Z,78.41
2018-10-11T03:47:34.273Z,78.54
2018-10-11T03:50:02.612Z,79.00
2018-10-11T03:52:31.531Z,78.50
2018-10-11T03:54:59.280Z,78.55
2018-10-11T03:57:28.233Z,78.60
2018-10-11T03:59:56.586Z,79.11
2018-10-11T04:02:24.910Z,79.78
2018-10-11T04:04:53.245Z,80.47
2018-10-11T04:07:21.581Z,80.96
2018-10-11T04:09:49.901Z,81.28
2018-10-11T04:12:18.226Z,81.85
2018-10-11T04:14:46.562Z,82.10
2018-10-11T04:17:14.317Z,81.73
2018-10-11T04:19:42.679Z,81.98
2018-10-11T04:22:11.018Z,81.62
2018-10-11T04:24:39.662Z,81.47
2018-10-11T04:27:08.287Z,81.31
2018-10-11T04:29:36.038Z,81.66
2018-10-11T04:32:04.369Z,81.41
2018-10-11T04:34:33.312Z,81.37
2018-10-11T04:37:01.070Z,81.23
2018-10-11T04:39:30.017Z,80.85
2018-10-11T04:41:57.776Z,80.89
2018-10-11T04:44:26.699Z,81.12
2018-10-11T04:46:55.038Z,81.45
2018-10-11T04:49:22.791Z,82.14
2018-10-11T04:51:51.129Z,82.13
2018-10-11T04:54:20.045Z,81.89
2018-10-11T04:56:48.378Z,81.41
2018-10-11T04:59:16.130Z,81.38
2018-10-11T05:01:44.470Z,81.01
2018-10-11T05:04:13.379Z,80.99
2018-10-11T05:06:42.035Z,81.21
2018-10-11T05:09:10.836Z,80.84
2018-10-11T05:11:38.476Z,80.61
2018-10-11T05:14:06.820Z,80.52
2018-10-11T05:16:35.047Z,80.59
2018-10-11T05:19:03.226Z,80.90
2018-10-11T05:21:31.891Z,81.12
2018-10-11T05:24:00.207Z,81.24
2018-10-11T05:26:27.962Z,81.16
2018-10-11T05:28:56.312Z,81.72
2018-10-11T05:31:25.250Z,82.33
2018-10-11T05:33:53.624Z,82.67
2018-10-11T05:36:21.979Z,83.56
2018-10-11T05:38:50.110Z,83.69
2018-10-11T05:41:18.472Z,83.94
2018-10-11T05:43:47.410Z,83.39
2018-10-11T05:46:15.783Z,83.42
2018-10-11T05:48:44.131Z,83.15
2018-10-11T05:51:11.964Z,82.93
2018-10-11T05:53:40.830Z,82.89
2018-10-11T05:56:08.581Z,82.64
2018-10-11T05:58:36.918Z,82.44
2018-10-11T06:01:05.828Z,82.34
2018-10-11T06:03:33.572Z,82.04
2018-10-11T06:06:02.521Z,82.01
2018-10-11T06:08:30.876Z,81.90
2018-10-11T06:10:58.633Z,81.95
2018-10-11T06:13:26.954Z,81.90
2018-10-11T06:15:55.293Z,81.77
2018-10-11T06:18:23.640Z,81.38
2018-10-11T06:20:52.590Z,81.32
2018-10-11T06:23:20.365Z,81.39
2018-10-11T06:25:48.712Z,81.56
2018-10-11T06:28:17.648Z,80.64
2018-10-11T06:30:46.003Z,78.48
2018-10-11T06:33:13.792Z,77.78
2018-10-11T06:35:42.912Z,78.22
2018-10-11T06:38:11.186Z,77.76
2018-10-11T06:40:38.937Z,76.78
2018-10-11T06:43:07.301Z,77.04
2018-10-11T06:45:36.451Z,77.70
2018-10-11T06:48:04.628Z,77.85
2018-10-11T06:50:32.976Z,78.21
2018-10-11T06:53:01.303Z,78.49
2018-10-11T06:55:29.056Z,78.74
2018-10-11T06:57:57.973Z,78.90
2018-10-11T07:00:26.319Z,78.93
2018-10-11T07:02:54.638Z,79.32
2018-10-11T07:05:22.993Z,79.57
2018-10-11T07:07:51.380Z,79.39
2018-10-11T07:10:21.040Z,78.98
2018-10-11T07:12:47.462Z,79.02
2018-10-11T07:15:16.063Z,78.86
2018-10-11T07:17:44.738Z,78.70
2018-10-11T07:20:13.114Z,78.58
2018-10-11T07:22:43.539Z,78.53
2018-10-11T07:25:11.922Z,78.51
2018-10-11T07:27:40.254Z,78.48
2018-10-11T07:30:08.032Z,78.38
2018-10-11T07:32:36.385Z,78.44
2018-10-11T07:35:05.360Z,78.25
2018-10-11T07:37:33.693Z,77.85
2018-10-11T07:40:02.641Z,77.43
2018-10-11T07:42:29.794Z,77.21
2018-10-11T07:44:58.748Z,77.12
2018-10-11T07:47:27.077Z,77.05
2018-10-11T07:49:55.432Z,76.90
2018-10-11T07:52:23.771Z,76.83
2018-10-11T07:54:51.846Z,76.72
2018-10-11T07:57:19.859Z,76.47
2018-10-11T07:59:48.186Z,76.18
2018-10-11T08:02:17.112Z,75.97
2018-10-11T08:04:45.442Z,75.88
2018-10-11T08:07:13.222Z,75.83
2018-10-11T08:09:42.105Z,75.79
2018-10-11T08:12:09.852Z,76.25
2018-10-11T08:14:38.783Z,76.28
2018-10-11T08:17:07.356Z,76.44
2018-10-11T08:19:35.702Z,76.62
2018-10-11T08:22:03.202Z,76.57
2018-10-11T08:24:32.189Z,76.66
2018-10-11T08:26:59.928Z,76.54
2018-10-11T08:29:28.467Z,76.81
2018-10-11T08:31:56.586Z,77.33
2018-10-11T08:34:25.508Z,77.55
2018-10-11T08:36:53.249Z,77.26
2018-10-11T08:39:22.177Z,76.82
2018-10-11T08:41:50.531Z,76.46
2018-10-11T08:44:18.275Z,76.00
2018-10-11T08:46:46.658Z,75.81
2018-10-11T08:49:15.044Z,75.64
2018-10-11T08:51:43.330Z,75.29
2018-10-11T08:54:12.305Z,75.18
2018-10-11T08:56:40.639Z,74.98
2018-10-11T08:59:09.046Z,74.95
2018-10-11T09:01:36.775Z,74.92
2018-10-11T09:04:05.851Z,74.26
2018-10-11T09:06:34.024Z,73.99
2018-10-11T09:09:02.363Z,73.94
2018-10-11T09:11:30.758Z,73.20
2018-10-11T09:13:59.271Z,72.99
2018-10-11T09:16:26.800Z,72.29
2018-10-11T09:18:55.719Z,72.17
2018-10-11T09:21:24.072Z,71.79
2018-10-11T09:23:51.863Z,72.17
2018-10-11T09:26:21.706Z,71.71
2018-10-11T09:28:49.491Z,71.88
2018-10-11T09:31:17.825Z,71.91
2018-10-11T09:33:46.744Z,71.48
2018-10-11T09:36:14.515Z,71.40
2018-10-11T09:38:42.849Z,71.69
2018-10-11T09:41:11.799Z,71.24
2018-10-11T09:43:39.542Z,71.18
2018-10-11T09:46:08.780Z,70.30
2018-10-11T09:48:36.607Z,70.30
2018-10-11T09:51:05.470Z,70.11
2018-10-11T09:53:33.828Z,69.55
2018-10-11T09:56:02.160Z,69.47
2018-10-11T09:58:30.510Z,69.37
2018-10-11T10:00:58.832Z,67.95
2018-10-11T10:03:27.178Z,68.71
2018-10-11T10:05:55.534Z,68.95
2018-10-11T10:08:23.293Z,68.07
2018-10-11T10:10:52.207Z,67.89
2018-10-11T10:13:20.545Z,68.12
2018-10-11T10:15:48.338Z,67.78
2018-10-11T10:18:17.258Z,67.74
2018-10-11T10:20:45.594Z,67.56
2018-10-11T10:23:13.936Z,67.47
2018-10-11T10:25:42.367Z,67.39
2018-10-11T10:28:10.655Z,67.59
2018-10-11T10:30:38.668Z,67.16
2018-10-11T10:33:07.340Z,67.13
2018-10-11T10:35:35.079Z,66.50
2018-10-11T10:38:03.413Z,66.47
2018-10-11T10:40:32.355Z,66.72
2018-10-11T10:43:02.652Z,66.52
2018-10-11T10:45:30.403Z,66.17
2018-10-11T10:47:59.331Z,65.57
2018-10-11T10:50:27.112Z,65.62
2018-10-11T10:52:55.427Z,65.62
2018-10-11T10:55:24.384Z,65.77
2018-10-11T10:57:52.143Z,65.39
2018-10-11T11:00:21.056Z,64.22
2018-10-11T11:02:49.399Z,64.49
2018-10-11T11:05:17.156Z,64.15
2018-10-11T11:07:46.088Z,63.64
2018-10-11T11:10:14.525Z,62.82
2018-10-11T11:12:42.906Z,63.16
2018-10-11T11:15:11.217Z,62.19
2018-10-11T11:17:40.650Z,61.30
2018-10-11T11:20:08.015Z,61.05
2018-10-11T11:22:36.337Z,61.58
2018-10-11T11:25:04.736Z,61.12
2018-10-11T11:27:32.475Z,60.44
2018-10-11T11:30:00.837Z,60.62
2018-10-11T11:32:29.761Z,60.17
2018-10-11T11:34:58.855Z,59.51
2018-10-11T11:37:26.459Z,57.78
2018-10-11T11:39:54.824Z,58.71
2018-10-11T11:42:23.160Z,58.68
2018-10-11T11:44:51.498Z,58.84
2018-10-11T11:47:19.673Z,57.79
2018-10-11T11:49:48.399Z,56.91
2018-10-11T11:52:16.790Z,55.54
2018-10-11T11:54:44.322Z,53.74
2018-10-11T11:57:13.238Z,53.40
2018-10-11T11:59:41.805Z,54.60
2018-10-11T12:02:09.975Z,53.49
2018-10-11T12:04:38.289Z,53.26
2018-10-11T12:07:06.624Z,51.22
2018-10-11T12:09:34.950Z,52.02
2018-10-11T12:12:03.317Z,50.73
2018-10-11T12:14:31.636Z,50.60
2018-10-11T12:17:00.018Z,50.11
2018-10-11T12:19:28.345Z,48.34
2018-10-11T12:21:56.690Z,48.66
2018-10-11T12:24:25.266Z,48.16
2018-10-11T12:26:53.380Z,47.80
2018-10-11T12:29:21.753Z,46.80
2018-10-11T12:31:49.526Z,46.10
2018-10-11T12:34:18.437Z,45.66
2018-10-11T12:36:46.797Z,45.56
2018-10-11T12:39:15.162Z,46.19
2018-10-11T12:41:43.495Z,44.96
2018-10-11T12:44:11.837Z,45.82
2018-10-11T12:46:41.135Z,45.17
2018-10-11T12:49:08.619Z,43.13
2018-10-11T12:51:36.896Z,43.53
2018-10-11T12:54:05.234Z,42.97
2018-10-11T12:56:33.633Z,42.22
2018-10-11T12:59:01.991Z,41.90
2018-10-11T13:01:30.298Z,42.01
2018-10-11T13:03:58.044Z,40.71
2018-10-11T13:06:26.390Z,39.97
2018-10-11T13:08:54.978Z,38.73
2018-10-11T13:11:23.650Z,38.05
2018-10-11T13:13:53.009Z,38.17
2018-10-11T13:16:20.335Z,37.58
2018-10-11T13:18:48.651Z,36.03
2018-10-11T13:21:17.000Z,35.01
2018-10-11T13:23:44.843Z,34.16
2018-10-11T13:26:13.692Z,33.46
2018-10-11T13:28:42.118Z,32.62
2018-10-11T13:31:09.837Z,31.96
2018-10-11T13:33:38.179Z,31.69
2018-10-11T13:36:07.100Z,32.23
2018-10-11T13:38:34.845Z,31.98
2018-10-11T13:41:03.993Z,31.32
2018-10-11T13:43:31.511Z,31.28
2018-10-11T13:46:02.540Z,31.21
2018-10-11T13:48:28.783Z,31.30
2018-10-11T13:50:57.131Z,30.72
2018-10-11T13:53:24.909Z,30.27
2018-10-11T13:55:57.687Z,29.88
2018-10-11T13:58:22.171Z,30.03
2018-10-11T14:00:50.546Z,31.90
2018-10-11T14:03:18.602Z,35.30
2018-10-11T14:05:47.216Z,36.71
2018-10-11T14:08:15.533Z,34.24
2018-10-11T14:10:43.356Z,31.90
2018-10-11T14:13:15.089Z,30.37
2018-10-11T14:15:40.575Z,30.24
2018-10-11T14:18:11.271Z,30.27
2018-10-11T14:20:37.299Z,29.44
2018-10-11T14:23:05.830Z,28.84
2018-10-11T14:25:34.022Z,28.41
2018-10-11T14:28:02.337Z,28.33
2018-10-11T14:30:30.675Z,30.54
2018-10-11T14:32:58.468Z,34.31
2018-10-11T14:35:26.761Z,37.55
2018-10-11T14:37:55.084Z,40.27
2018-10-11T14:40:24.069Z,42.12
2018-10-11T14:42:51.817Z,43.55
2018-10-11T14:45:20.152Z,44.73
2018-10-11T14:47:49.104Z,45.94
2018-10-11T14:50:17.438Z,47.14
2018-10-11T14:52:45.189Z,48.24
2018-10-11T14:55:14.119Z,48.81
2018-10-11T14:57:42.091Z,49.65
2018-10-11T15:00:10.844Z,50.16
2018-10-11T15:02:38.620Z,50.82
2018-10-11T15:05:07.576Z,51.38
2018-10-11T15:07:35.312Z,51.80
2018-10-11T15:10:04.263Z,52.38
2018-10-11T15:12:32.604Z,52.62
2018-10-11T15:15:00.340Z,53.48
2018-10-11T15:17:29.259Z,53.60
2018-10-11T15:19:59.467Z,54.39
2018-10-11T15:22:25.347Z,54.90
2018-10-11T15:24:53.686Z,55.28
2018-10-11T15:27:22.606Z,55.83
2018-10-11T15:29:50.384Z,56.06
2018-10-11T15:32:19.263Z,56.71
2018-10-11T15:34:47.608Z,56.92
2018-10-11T15:37:15.931Z,57.39
2018-10-11T15:39:46.070Z,57.70
2018-10-11T15:42:13.833Z,58.00
2018-10-11T15:44:42.749Z,58.40
2018-10-11T15:47:10.514Z,58.66
2018-10-11T15:49:39.438Z,59.75
2018-10-11T15:52:07.824Z,59.91
2018-10-11T15:54:35.585Z,60.51
2018-10-11T15:57:04.733Z,60.66
2018-10-11T15:59:32.918Z,60.87
2018-10-11T16:02:01.298Z,61.61
2018-10-11T16:04:29.641Z,62.01
2018-10-11T16:06:57.571Z,62.88
2018-10-11T16:09:28.231Z,63.09
2018-10-11T16:11:55.996Z,63.49
2018-10-11T16:14:24.902Z,63.78
2018-10-11T16:16:53.304Z,64.33
2018-10-11T16:19:21.091Z,64.41
2018-10-11T16:21:50.043Z,65.00
2018-10-11T16:24:18.583Z,65.17
2018-10-11T16:26:46.966Z,65.59
2018-10-11T16:29:15.431Z,65.85
2018-10-11T16:31:44.639Z,65.74
2018-10-11T16:34:12.454Z,66.50
2018-10-11T16:36:41.370Z,66.05
2018-10-11T16:39:09.657Z,66.05
2018-10-11T16:41:38.563Z,65.88
2018-10-11T16:44:07.335Z,66.81
2018-10-11T16:46:35.824Z,66.82
2018-10-11T16:49:03.621Z,66.63
2018-10-11T16:51:32.677Z,66.55
2018-10-11T16:54:02.700Z,66.44
2018-10-11T16:56:31.019Z,66.20
2018-10-11T16:58:59.614Z,65.99
2018-10-11T17:01:27.996Z,66.23
2018-10-11T17:03:56.359Z,66.38
2018-10-11T17:06:24.867Z,66.66
2018-10-11T17:08:53.648Z,66.89
2018-10-11T17:11:22.931Z,67.01
2018-10-11T17:13:51.311Z,67.00
2018-10-11T17:16:19.684Z,66.93
2018-10-11T17:18:48.505Z,66.99
2018-10-11T17:21:16.964Z,67.23
2018-10-11T17:23:49.789Z,67.67
2018-10-11T17:26:16.171Z,67.83
2018-10-11T17:28:44.306Z,67.86
2018-10-11T17:31:12.774Z,67.95
2018-10-11T17:33:41.089Z,68.01
2018-10-11T17:36:08.938Z,68.70
2018-10-11T17:38:37.889Z,68.51
2018-10-11T17:41:06.748Z,68.45
2018-10-11T17:46:31.207Z,68.44
2018-10-11T17:49:00.541Z,68.65
2018-10-11T17:51:28.393Z,68.67
2018-10-11T17:53:57.320Z,69.05
2018-10-11T17:56:27.613Z,69.29
2018-10-11T17:58:54.959Z,69.33
2018-10-11T18:01:23.321Z,69.01
2018-10-11T18:03:51.768Z,69.20
2018-10-11T18:06:20.808Z,69.37
2018-10-11T18:08:49.952Z,69.41
2018-10-11T18:11:18.507Z,69.59
2018-10-11T18:13:46.823Z,69.67
2018-10-11T18:16:15.279Z,69.83
2018-10-11T18:21:42.584Z,70.23
2018-10-11T18:24:10.910Z,70.40
2018-10-11T18:26:39.411Z,70.68
2018-10-11T18:29:07.870Z,70.85
2018-10-11T18:31:36.180Z,70.94
2018-10-11T18:34:04.728Z,71.14
2018-10-11T18:36:33.205Z,71.05
2018-10-11T18:39:02.552Z,71.13
2018-10-11T18:41:30.828Z,71.31
2018-10-11T18:43:59.297Z,71.42
2018-10-11T18:46:27.605Z,71.25
2018-10-11T18:48:56.023Z,71.74
2018-10-11T18:51:24.479Z,71.74
2018-10-11T18:53:52.830Z,71.63
2018-10-11T18:56:21.189Z,71.64
2018-10-11T18:58:49.613Z,71.75
2018-10-11T19:01:18.185Z,71.92
2018-10-11T19:03:46.676Z,72.02
2018-10-11T19:06:15.173Z,72.15
2018-10-11T19:08:44.525Z,72.04
2018-10-11T19:11:12.943Z,72.14
2018-10-11T19:13:40.811Z,72.52
2018-10-11T19:16:09.889Z,72.83
2018-10-11T19:18:38.324Z,72.91
2018-10-11T19:21:06.671Z,73.99
2018-10-11T19:23:35.039Z,73.92
2018-10-11T19:26:03.377Z,74.20
2018-10-11T19:28:31.129Z,73.85
2018-10-11T19:31:00.871Z,73.81
2018-10-11T19:33:28.685Z,73.42
2018-10-11T19:35:57.116Z,73.48
2018-10-11T19:38:26.336Z,73.45
2018-10-11T19:40:54.456Z,73.45
2018-10-11T19:43:22.297Z,73.41
2018-10-11T19:45:50.654Z,73.15
2018-10-11T19:48:19.702Z,73.24
2018-10-11T19:50:48.030Z,73.26
2018-10-11T19:53:16.694Z,72.90
2018-10-11T19:55:45.042Z,72.68
2018-10-11T19:58:13.366Z,72.56
2018-10-11T20:00:41.970Z,72.71
2018-10-11T20:03:09.625Z,72.78
2018-10-11T20:05:38.564Z,72.75
2018-10-11T20:08:07.063Z,72.78
2018-10-11T20:10:34.742Z,72.82
2018-10-11T20:13:03.659Z,72.82
2018-10-11T20:15:32.113Z,72.78
2018-10-11T20:18:03.901Z,72.68
2018-10-11T20:20:28.281Z,73.04
2018-10-11T20:22:57.198Z,73.03
2018-10-11T20:25:25.533Z,73.26
2018-10-11T20:27:53.875Z,73.02
2018-10-11T20:30:22.207Z,73.63
2018-10-11T20:32:50.555Z,73.12
2018-10-11T20:35:20.276Z,73.01
2018-10-11T20:37:48.617Z,73.03
2018-10-11T20:40:16.967Z,72.99
2018-10-11T20:42:44.724Z,72.95
2018-10-11T20:45:13.644Z,72.83
2018-10-11T20:47:43.276Z,72.78
2018-10-11T20:50:10.356Z,72.83
2018-10-11T20:52:38.113Z,72.61
2018-10-11T20:55:07.074Z,72.66
2018-10-11T20:57:36.484Z,72.79
2018-10-11T21:00:03.995Z,72.90
2018-10-11T21:02:32.916Z,72.89
2018-10-11T21:05:01.664Z,72.97
2018-10-11T21:07:30.510Z,73.11
2018-10-11T21:09:58.937Z,73.08
2018-10-11T21:12:28.399Z,73.26
2018-10-11T21:14:57.051Z,73.42
2018-10-11T21:17:26.272Z,73.45
2018-10-11T21:19:54.104Z,73.52
2018-10-11T21:22:22.956Z,73.60
2018-10-11T21:24:51.903Z,73.55
2018-10-11T21:27:20.232Z,73.68
2018-10-11T21:29:47.981Z,73.72
2018-10-11T21:32:16.897Z,73.78
2018-10-11T21:34:44.748Z,73.90
2018-10-11T21:37:12.978Z,74.08
2018-10-11T21:39:41.914Z,74.09
2018-10-11T21:42:09.664Z,74.22
2018-10-11T21:44:37.997Z,74.48
2018-10-11T21:47:06.908Z,74.65
2018-10-11T21:49:35.292Z,74.50
2018-10-11T21:52:03.627Z,74.65
2018-10-11T21:54:31.959Z,74.68
2018-10-11T21:57:00.294Z,74.77
2018-10-11T21:59:28.070Z,74.79
2018-10-11T22:01:56.981Z,74.83
2018-10-11T22:04:25.340Z,74.96
2018-10-11T22:06:53.694Z,75.05
2018-10-11T22:09:22.029Z,75.12
2018-10-11T22:11:50.365Z,75.74
2018-10-11T22:14:18.712Z,75.53
2018-10-11T22:16:46.452Z,75.51
2018-10-11T22:19:15.364Z,76.01
2018-10-11T22:21:43.713Z,75.68
2018-10-11T22:24:12.030Z,75.81
2018-10-11T22:26:40.384Z,75.77
2018-10-11T22:29:08.137Z,75.97
2018-10-11T22:31:37.047Z,75.96
2018-10-11T22:34:05.381Z,76.14
2018-10-11T22:36:33.189Z,76.03
2018-10-11T22:39:02.044Z,76.50
2018-10-11T22:41:30.393Z,76.43
2018-10-11T22:43:58.732Z,76.29
2018-10-11T22:46:27.070Z,76.12
2018-10-11T22:48:55.396Z,75.66
2018-10-11T22:51:23.727Z,75.56
2018-10-11T22:53:52.056Z,75.33
2018-10-11T22:56:20.395Z,75.24
2018-10-11T22:58:48.735Z,75.22
2018-10-11T23:01:17.067Z,75.16
2018-10-11T23:03:44.845Z,74.89
2018-10-11T23:06:13.774Z,74.76
2018-10-11T23:08:42.130Z,74.62
2018-10-11T23:11:10.466Z,74.60
2018-10-11T23:13:38.795Z,74.56
2018-10-11T23:16:07.129Z,74.29
2018-10-11T23:18:35.457Z,74.19
2018-10-11T23:21:03.218Z,73.92
2018-10-11T23:23:32.142Z,73.76
2018-10-11T23:25:59.896Z,73.64
2018-10-11T23:28:28.824Z,73.56
2018-10-11T23:30:57.167Z,73.50
2018-10-11T23:33:24.913Z,73.33
2018-10-11T23:35:53.249Z,73.25
2018-10-11T23:38:21.580Z,73.26
2018-10-11T23:40:49.905Z,73.24
2018-10-11T23:43:18.233Z,73.18
2018-10-11T23:45:47.154Z,72.99
2018-10-11T23:48:14.908Z,72.85
2018-10-11T23:50:43.827Z,72.58
2018-10-11T23:53:12.166Z,72.31
2018-10-11T23:55:40.485Z,72.45
2018-10-11T23:58:08.233Z,72.33
